PWSweather.com
Personal Weather Stations
Station Observations
INEWSOUT98
ArmidaleAU 2350

ArmidaleAU 2350

Lat: -30.517, Lon: 151.656

Elevation: 3265

Station Type: CampbellSci

http://www.armidaleweather.com

Latest ConditionsUpdated 6:15:00 PM GMT+10:10 Monday, Nov 19, 2018
Currently Today's Max Today's Min Today's Average
Temperature 62.5°F16.9°C 77.5°F25.3°C 50.8°F10.4°C 62.4°F16.9°C
Dew Point 59.5°F15.3°C 60.1°F15.6°C 50.5°F10.3°C 53.7°F12.1°C
Winds 4.6 mph E7.4 kmh E 9.2 mph -14.8 kmh - - 4.9 mph 7.9 kmh
Wind Gusts 4.6 mph7.4 kmh 10.4 mph16.7 kmh - -
Humidity 90% 100% 42% 76%
Pressure 30.11 in1019.6 mb 30.22 in1023.4 mb 30.09 in1019.0 mb -
Precipitation - 0.01 in0.3 mm - -
Hour Temp Dew Point Humidity Winds Wind Gusts Pressure Precip Precip Rate Daily Precip Total
06:15 PM 62.5°F16.9°C 59.5°F15.3°C 90% 4.6 mph E7.4 kmh E 4.6 mph7.4 kmh 30.11 in1019.6 mb - 0.00 in0.0 mm 0.01 in0.3 mm
06:10 PM 62.7°F17.1°C 59.1°F15.1°C 88% 5.8 mph SE9.3 kmh SE 5.8 mph9.3 kmh 30.11 in1019.6 mb - 0.00 in0.0 mm 0.01 in0.3 mm
06:00 PM 63.4°F17.4°C 59.2°F15.1°C 86% 6.9 mph ESE11.1 kmh ESE 6.9 mph11.1 kmh 30.09 in1019.0 mb - 0.00 in0.0 mm 0.01 in0.3 mm
05:55 PM 63.8°F17.7°C 59.6°F15.3°C 86% 5.8 mph S9.3 kmh S 5.8 mph9.3 kmh 30.09 in1019.0 mb - 0.00 in0.0 mm 0.01 in0.3 mm
05:50 PM 64.3°F17.9°C 59.7°F15.4°C 85% 5.8 mph ESE9.3 kmh ESE 5.8 mph9.3 kmh 30.09 in1019.0 mb - 0.01 in0.3 mm 0.01 in0.3 mm
05:45 PM 64.7°F18.2°C 60.1°F15.6°C 85% 2.3 mph ESE3.7 kmh ESE 2.3 mph3.7 kmh 30.09 in1019.0 mb - 0.01 in0.3 mm 0.01 in0.3 mm
05:40 PM 65.1°F18.4°C 60.1°F15.6°C 84% 3.5 mph SE5.6 kmh SE 4.6 mph7.4 kmh 30.09 in1019.0 mb - 0.01 in0.3 mm 0.01 in0.3 mm
05:35 PM 65.4°F18.6°C 59.8°F15.4°C 82% 4.6 mph SE7.4 kmh SE 4.6 mph7.4 kmh 30.09 in1019.0 mb - 0.01 in0.3 mm 0.01 in0.3 mm
05:30 PM 65.8°F18.8°C 59.8°F15.4°C 81% 3.5 mph E5.6 kmh E 4.6 mph7.4 kmh 30.09 in1019.0 mb - 0.01 in0.3 mm 0.01 in0.3 mm
05:25 PM 66.2°F19.0°C 59.8°F15.4°C 80% 3.5 mph SE5.6 kmh SE 4.6 mph7.4 kmh 30.09 in1019.0 mb - 0.01 in0.3 mm 0.01 in0.3 mm
05:20 PM 66.5°F19.2°C 60.1°F15.6°C 80% Calm Calm 2.3 mph3.7 kmh 30.09 in1019.0 mb - 0.01 in0.3 mm 0.01 in0.3 mm
05:15 PM 66.8°F19.3°C 60.0°F15.6°C 79% 2.3 mph S3.7 kmh S 2.3 mph3.7 kmh 30.09 in1019.0 mb - 0.01 in0.3 mm 0.01 in0.3 mm
05:10 PM 67.1°F19.5°C 59.3°F15.2°C 76% 3.5 mph SE5.6 kmh SE 3.5 mph5.6 kmh 30.09 in1019.0 mb - 0.01 in0.3 mm 0.01 in0.3 mm
05:00 PM 67.7°F19.8°C 59.2°F15.1°C 74% Calm Calm -- 30.09 in1019.0 mb - 0.01 in0.3 mm 0.01 in0.3 mm
04:55 PM 68.1°F20.1°C 58.3°F14.6°C 71% 3.5 mph ESE5.6 kmh ESE 3.5 mph5.6 kmh 30.09 in1019.0 mb - 0.01 in0.3 mm 0.01 in0.3 mm
04:50 PM 68.5°F20.3°C 58.3°F14.6°C 70% 4.6 mph NE7.4 kmh NE 4.6 mph7.4 kmh 30.09 in1019.0 mb - 0.00 in0.0 mm 0.00 in0.0 mm
04:45 PM 68.8°F20.4°C 59.0°F15.0°C 71% 3.5 mph ENE5.6 kmh ENE 4.6 mph7.4 kmh 30.09 in1019.0 mb - 0.00 in0.0 mm 0.00 in0.0 mm
04:40 PM 69.1°F20.6°C 58.9°F14.9°C 70% 5.8 mph N9.3 kmh N 5.8 mph9.3 kmh 30.09 in1019.0 mb - 0.00 in0.0 mm 0.00 in0.0 mm
04:35 PM 69.3°F20.7°C 58.3°F14.6°C 68% 5.8 mph E9.3 kmh E 5.8 mph9.3 kmh 30.09 in1019.0 mb - 0.00 in0.0 mm 0.00 in0.0 mm
04:30 PM 69.5°F20.8°C 57.2°F14.0°C 65% 6.9 mph N11.1 kmh N 6.9 mph11.1 kmh 30.09 in1019.0 mb - 0.00 in0.0 mm 0.00 in0.0 mm
04:25 PM 69.6°F20.9°C 55.1°F12.8°C 60% 3.5 mph E5.6 kmh E 4.6 mph7.4 kmh 30.09 in1019.0 mb - 0.00 in0.0 mm 0.00 in0.0 mm
04:20 PM 69.6°F20.9°C 54.2°F12.3°C 58% 2.3 mph WSW3.7 kmh WSW 3.5 mph5.6 kmh 30.09 in1019.0 mb - 0.00 in0.0 mm 0.00 in0.0 mm
04:15 PM 69.6°F20.9°C 54.2°F12.3°C 58% 4.6 mph NE7.4 kmh NE 4.6 mph7.4 kmh 30.09 in1019.0 mb - 0.00 in0.0 mm 0.00 in0.0 mm
04:10 PM 69.7°F20.9°C 53.7°F12.1°C 57% 2.3 mph NW3.7 kmh NW 2.3 mph3.7 kmh 30.09 in1019.0 mb - 0.00 in0.0 mm 0.00 in0.0 mm
04:00 PM 69.7°F20.9°C 53.8°F12.1°C 57% 4.6 mph NE7.4 kmh NE 4.6 mph7.4 kmh 30.09 in1019.0 mb - 0.00 in0.0 mm 0.00 in0.0 mm
03:55 PM 69.8°F21.0°C 53.9°F12.2°C 57% 3.5 mph E5.6 kmh E 4.6 mph7.4 kmh 30.09 in1019.0 mb - 0.00 in0.0 mm 0.00 in0.0 mm
03:50 PM 70.0°F21.1°C 53.5°F11.9°C 56% 4.6 mph NNW7.4 kmh NNW 4.6 mph7.4 kmh 30.09 in1019.0 mb - 0.00 in0.0 mm 0.00 in0.0 mm
03:45 PM 70.1°F21.2°C 54.1°F12.3°C 57% 3.5 mph SSE5.6 kmh SSE 3.5 mph5.6 kmh 30.09 in1019.0 mb - 0.00 in0.0 mm 0.00 in0.0 mm
03:40 PM 70.1°F21.2°C 54.1°F12.3°C 57% 4.6 mph E7.4 kmh E 4.6 mph7.4 kmh 30.09 in1019.0 mb - 0.00 in0.0 mm 0.00 in0.0 mm
03:35 PM 70.1°F21.2°C 54.6°F12.6°C 58% 3.5 mph NE5.6 kmh NE 5.8 mph9.3 kmh 30.09 in1019.0 mb - 0.00 in0.0 mm 0.00 in0.0 mm
03:30 PM 70.0°F21.1°C 54.6°F12.6°C 58% 3.5 mph E5.6 kmh E 3.5 mph5.6 kmh 30.09 in1019.0 mb - 0.00 in0.0 mm 0.00 in0.0 mm
03:25 PM 70.0°F21.1°C 54.5°F12.5°C 58% 2.3 mph SSE3.7 kmh SSE 4.6 mph7.4 kmh 30.09 in1019.0 mb - 0.00 in0.0 mm 0.00 in0.0 mm
03:20 PM 70.0°F21.1°C 55.0°F12.8°C 59% 3.5 mph ESE5.6 kmh ESE 3.5 mph5.6 kmh 30.09 in1019.0 mb - 0.00 in0.0 mm 0.00 in0.0 mm
03:15 PM 69.9°F21.1°C 54.9°F12.7°C 59% 2.3 mph NE3.7 kmh NE 4.6 mph7.4 kmh 30.09 in1019.0 mb - 0.00 in0.0 mm 0.00 in0.0 mm
03:10 PM 69.8°F21.0°C 54.4°F12.4°C 58% 4.6 mph E7.4 kmh E 4.6 mph7.4 kmh 30.09 in1019.0 mb - 0.00 in0.0 mm 0.00 in0.0 mm
03:00 PM 70.0°F21.1°C 54.1°F12.3°C 57% 5.8 mph ESE9.3 kmh ESE 5.8 mph9.3 kmh 30.11 in1019.6 mb - 0.00 in0.0 mm 0.00 in0.0 mm
02:55 PM 70.1°F21.2°C 54.6°F12.6°C 58% 5.8 mph SSE9.3 kmh SSE 5.8 mph9.3 kmh 30.11 in1019.6 mb - 0.00 in0.0 mm 0.00 in0.0 mm
02:50 PM 70.2°F21.2°C 54.8°F12.7°C 58% 4.6 mph ESE7.4 kmh ESE 4.6 mph7.4 kmh 30.11 in1019.6 mb - 0.00 in0.0 mm 0.00 in0.0 mm
02:45 PM 70.4°F21.3°C 55.0°F12.8°C 58% 5.8 mph ENE9.3 kmh ENE 5.8 mph9.3 kmh 30.11 in1019.6 mb - 0.00 in0.0 mm 0.00 in0.0 mm
02:40 PM 70.7°F21.5°C 55.2°F12.9°C 58% 3.5 mph E5.6 kmh E 4.6 mph7.4 kmh 30.11 in1019.6 mb - 0.00 in0.0 mm 0.00 in0.0 mm
02:35 PM 71.0°F21.7°C 54.5°F12.5°C 56% 6.9 mph E11.1 kmh E 6.9 mph11.1 kmh 30.11 in1019.6 mb - 0.00 in0.0 mm 0.00 in0.0 mm
02:30 PM 71.1°F21.7°C 55.1°F12.8°C 57% 8.1 mph NE13.0 kmh NE 8.1 mph13.0 kmh 30.11 in1019.6 mb - 0.00 in0.0 mm 0.00 in0.0 mm
02:25 PM 71.1°F21.7°C 56.5°F13.6°C 60% 9.2 mph E14.8 kmh E 10.4 mph16.7 kmh 30.11 in1019.6 mb - 0.00 in0.0 mm 0.00 in0.0 mm
02:20 PM 71.4°F21.9°C 54.9°F12.7°C 56% 6.9 mph ESE11.1 kmh ESE 8.1 mph13.0 kmh 30.11 in1019.6 mb - 0.00 in0.0 mm 0.00 in0.0 mm
02:15 PM 71.4°F21.9°C 55.8°F13.2°C 58% 4.6 mph SE7.4 kmh SE 4.6 mph7.4 kmh 30.11 in1019.6 mb - 0.00 in0.0 mm 0.00 in0.0 mm
02:10 PM 71.2°F21.8°C 56.6°F13.7°C 60% 8.1 mph S13.0 kmh S 8.1 mph13.0 kmh 30.11 in1019.6 mb - 0.00 in0.0 mm 0.00 in0.0 mm
02:00 PM 70.4°F21.3°C 57.2°F14.0°C 63% 4.6 mph S7.4 kmh S 9.2 mph14.8 kmh 30.12 in1020.0 mb - 0.00 in0.0 mm 0.00 in0.0 mm
01:55 PM 69.9°F21.1°C 56.8°F13.8°C 63% 8.1 mph SE13.0 kmh SE 8.1 mph13.0 kmh 30.12 in1020.0 mb - 0.00 in0.0 mm 0.00 in0.0 mm
01:50 PM 69.5°F20.8°C 58.1°F14.5°C 67% 5.8 mph SSE9.3 kmh SSE 4.6 mph7.4 kmh 30.12 in1020.0 mb - 0.00 in0.0 mm 0.00 in0.0 mm
01:45 PM 69.2°F20.7°C 56.5°F13.6°C 64% 4.6 mph ESE7.4 kmh ESE 8.1 mph13.0 kmh 30.12 in1020.0 mb - 0.00 in0.0 mm 0.00 in0.0 mm
01:40 PM 69.1°F20.6°C 56.8°F13.8°C 65% 4.6 mph ENE7.4 kmh ENE 4.6 mph7.4 kmh 30.12 in1020.0 mb - 0.00 in0.0 mm 0.00 in0.0 mm
01:35 PM 69.3°F20.7°C 57.4°F14.1°C 66% 5.8 mph SSW9.3 kmh SSW 5.8 mph9.3 kmh 30.12 in1020.0 mb - 0.00 in0.0 mm 0.00 in0.0 mm
01:30 PM 69.5°F20.8°C 56.8°F13.8°C 64% 8.1 mph E13.0 kmh E 8.1 mph13.0 kmh 30.12 in1020.0 mb - 0.00 in0.0 mm 0.00 in0.0 mm
01:25 PM 69.9°F21.1°C 56.7°F13.7°C 63% 8.1 mph SSE13.0 kmh SSE 9.2 mph14.8 kmh 30.12 in1020.0 mb - 0.00 in0.0 mm 0.00 in0.0 mm
01:20 PM 70.2°F21.2°C 57.0°F13.9°C 63% 9.2 mph E14.8 kmh E 9.2 mph14.8 kmh 30.12 in1020.0 mb - 0.00 in0.0 mm 0.00 in0.0 mm
01:15 PM 70.7°F21.5°C 55.6°F13.1°C 59% 6.9 mph ESE11.1 kmh ESE 8.1 mph13.0 kmh 30.12 in1020.0 mb - 0.00 in0.0 mm 0.00 in0.0 mm
01:10 PM 71.0°F21.7°C 55.9°F13.3°C 59% 3.5 mph SE5.6 kmh SE 4.6 mph7.4 kmh 30.12 in1020.0 mb - 0.00 in0.0 mm 0.00 in0.0 mm
01:00 PM 71.9°F22.2°C 53.3°F11.8°C 52% 5.8 mph SE9.3 kmh SE 5.8 mph9.3 kmh 30.13 in1020.3 mb - 0.00 in0.0 mm 0.00 in0.0 mm
12:55 PM 72.3°F22.4°C 52.6°F11.4°C 50% 3.5 mph E5.6 kmh E 3.5 mph5.6 kmh 30.13 in1020.3 mb - 0.00 in0.0 mm 0.00 in0.0 mm
12:50 PM 72.9°F22.7°C 53.2°F11.8°C 50% 1.2 mph E1.9 kmh E 1.2 mph1.9 kmh 30.13 in1020.3 mb - 0.00 in0.0 mm 0.00 in0.0 mm
12:45 PM 73.3°F22.9°C 53.5°F11.9°C 50% 5.8 mph SE9.3 kmh SE 5.8 mph9.3 kmh 30.13 in1020.3 mb - 0.00 in0.0 mm 0.00 in0.0 mm
12:40 PM 73.9°F23.3°C 53.5°F11.9°C 49% 4.6 mph E7.4 kmh E 4.6 mph7.4 kmh 30.13 in1020.3 mb - 0.00 in0.0 mm 0.00 in0.0 mm
12:35 PM 74.4°F23.6°C 53.4°F11.9°C 48% 4.6 mph E7.4 kmh E 4.6 mph7.4 kmh 30.13 in1020.3 mb - 0.00 in0.0 mm 0.00 in0.0 mm
12:30 PM 75.1°F23.9°C 53.5°F11.9°C 47% 4.6 mph E7.4 kmh E 4.6 mph7.4 kmh 30.13 in1020.3 mb - 0.00 in0.0 mm 0.00 in0.0 mm
12:25 PM 75.5°F24.2°C 53.3°F11.8°C 46% 4.6 mph SE7.4 kmh SE 4.6 mph7.4 kmh 30.13 in1020.3 mb - 0.00 in0.0 mm 0.00 in0.0 mm
12:20 PM 76.0°F24.4°C 51.9°F11.1°C 43% Calm Calm -- 30.13 in1020.3 mb - 0.00 in0.0 mm 0.00 in0.0 mm
12:15 PM 76.2°F24.6°C 52.1°F11.2°C 43% 1.2 mph ENE1.9 kmh ENE 2.3 mph3.7 kmh 30.13 in1020.3 mb - 0.00 in0.0 mm 0.00 in0.0 mm
12:10 PM 76.6°F24.8°C 51.8°F11.0°C 42% 4.6 mph NE7.4 kmh NE 4.6 mph7.4 kmh 30.13 in1020.3 mb - 0.00 in0.0 mm 0.00 in0.0 mm
12:00 PM 77.5°F25.3°C 52.6°F11.4°C 42% 3.5 mph ENE5.6 kmh ENE 3.5 mph5.6 kmh 30.16 in1021.3 mb - 0.00 in0.0 mm 0.00 in0.0 mm
11:55 AM 77.5°F25.3°C 53.3°F11.8°C 43% 5.8 mph ESE9.3 kmh ESE 5.8 mph9.3 kmh 30.16 in1021.3 mb - 0.00 in0.0 mm 0.00 in0.0 mm
11:50 AM 77.5°F25.3°C 53.3°F11.8°C 43% 5.8 mph SW9.3 kmh SW 5.8 mph9.3 kmh 30.16 in1021.3 mb - 0.00 in0.0 mm 0.00 in0.0 mm
11:45 AM 77.3°F25.2°C 53.7°F12.1°C 44% 4.6 mph WSW7.4 kmh WSW 4.6 mph7.4 kmh 30.16 in1021.3 mb - 0.00 in0.0 mm 0.00 in0.0 mm
11:40 AM 77.1°F25.1°C 53.5°F11.9°C 44% 4.6 mph SE7.4 kmh SE 4.6 mph7.4 kmh 30.16 in1021.3 mb - 0.00 in0.0 mm 0.00 in0.0 mm
11:35 AM 77.2°F25.1°C 53.0°F11.7°C 43% 4.6 mph ENE7.4 kmh ENE 4.6 mph7.4 kmh 30.16 in1021.3 mb - 0.00 in0.0 mm 0.00 in0.0 mm
11:30 AM 77.4°F25.2°C 52.5°F11.4°C 42% 3.5 mph NE5.6 kmh NE 4.6 mph7.4 kmh 30.16 in1021.3 mb - 0.00 in0.0 mm 0.00 in0.0 mm
11:25 AM 77.4°F25.2°C 52.5°F11.4°C 42% 4.6 mph ENE7.4 kmh ENE 4.6 mph7.4 kmh 30.16 in1021.3 mb - 0.00 in0.0 mm 0.00 in0.0 mm
11:20 AM 77.3°F25.2°C 54.9°F12.7°C 46% 4.6 mph NW7.4 kmh NW 4.6 mph7.4 kmh 30.16 in1021.3 mb - 0.00 in0.0 mm 0.00 in0.0 mm
11:15 AM 76.7°F24.8°C 55.0°F12.8°C 47% 3.5 mph S5.6 kmh S 3.5 mph5.6 kmh 30.16 in1021.3 mb - 0.00 in0.0 mm 0.00 in0.0 mm
11:10 AM 76.3°F24.6°C 55.2°F12.9°C 48% 4.6 mph SE7.4 kmh SE 4.6 mph7.4 kmh 30.16 in1021.3 mb - 0.00 in0.0 mm 0.00 in0.0 mm
11:00 AM 75.0°F23.9°C 55.6°F13.1°C 51% 3.5 mph WSW5.6 kmh WSW 2.3 mph3.7 kmh 30.19 in1022.4 mb - 0.00 in0.0 mm 0.00 in0.0 mm
10:55 AM 74.8°F23.8°C 55.4°F13.0°C 51% 4.6 mph SE7.4 kmh SE 4.6 mph7.4 kmh 30.19 in1022.4 mb - 0.00 in0.0 mm 0.00 in0.0 mm
10:50 AM 74.6°F23.7°C 53.6°F12.0°C 48% 6.9 mph SSW11.1 kmh SSW 6.9 mph11.1 kmh 30.19 in1022.4 mb - 0.00 in0.0 mm 0.00 in0.0 mm
10:45 AM 74.1°F23.4°C 54.3°F12.4°C 50% 8.1 mph ENE13.0 kmh ENE 8.1 mph13.0 kmh 30.19 in1022.4 mb - 0.00 in0.0 mm 0.00 in0.0 mm
10:40 AM 73.7°F23.2°C 54.9°F12.7°C 52% 4.6 mph ESE7.4 kmh ESE 4.6 mph7.4 kmh 30.19 in1022.4 mb - 0.00 in0.0 mm 0.00 in0.0 mm
10:35 AM 73.1°F22.8°C 56.0°F13.3°C 55% 6.9 mph SSE11.1 kmh SSE 6.9 mph11.1 kmh 30.19 in1022.4 mb - 0.00 in0.0 mm 0.00 in0.0 mm
10:30 AM 72.5°F22.5°C 53.9°F12.2°C 52% 5.8 mph ESE9.3 kmh ESE 8.1 mph13.0 kmh 30.19 in1022.4 mb - 0.00 in0.0 mm 0.00 in0.0 mm
10:25 AM 72.2°F22.3°C 55.6°F13.1°C 56% 5.8 mph SSW9.3 kmh SSW 6.9 mph11.1 kmh 30.19 in1022.4 mb - 0.00 in0.0 mm 0.00 in0.0 mm
10:20 AM 71.7°F22.1°C 53.2°F11.8°C 52% 3.5 mph W5.6 kmh W 4.6 mph7.4 kmh 30.19 in1022.4 mb - 0.00 in0.0 mm 0.00 in0.0 mm
10:15 AM 71.4°F21.9°C 57.3°F14.1°C 61% 5.8 mph S9.3 kmh S 4.6 mph7.4 kmh 30.19 in1022.4 mb - 0.00 in0.0 mm 0.00 in0.0 mm
10:10 AM 71.3°F21.8°C 52.8°F11.6°C 52% 5.8 mph E9.3 kmh E 8.1 mph13.0 kmh 30.19 in1022.4 mb - 0.00 in0.0 mm 0.00 in0.0 mm
10:00 AM 71.3°F21.8°C 52.7°F11.5°C 52% 5.8 mph E9.3 kmh E 5.8 mph9.3 kmh 30.20 in1022.7 mb - 0.00 in0.0 mm 0.00 in0.0 mm
09:55 AM 71.3°F21.8°C 53.8°F12.1°C 54% 6.9 mph SE11.1 kmh SE 6.9 mph11.1 kmh 30.20 in1022.7 mb - 0.00 in0.0 mm 0.00 in0.0 mm
09:50 AM 71.2°F21.8°C 53.7°F12.1°C 54% 3.5 mph ESE5.6 kmh ESE 5.8 mph9.3 kmh 30.20 in1022.7 mb - 0.00 in0.0 mm 0.00 in0.0 mm
09:45 AM 71.1°F21.7°C 56.1°F13.4°C 59% 4.6 mph S7.4 kmh S 5.8 mph9.3 kmh 30.20 in1022.7 mb - 0.00 in0.0 mm 0.00 in0.0 mm
09:40 AM 70.7°F21.5°C 54.2°F12.3°C 56% 5.8 mph NE9.3 kmh NE 4.6 mph7.4 kmh 30.20 in1022.7 mb - 0.00 in0.0 mm 0.00 in0.0 mm
09:35 AM 70.4°F21.3°C 54.0°F12.2°C 56% 4.6 mph SE7.4 kmh SE 6.9 mph11.1 kmh 30.20 in1022.7 mb - 0.00 in0.0 mm 0.00 in0.0 mm
09:30 AM 69.9°F21.1°C 55.9°F13.3°C 61% 3.5 mph SSW5.6 kmh SSW 3.5 mph5.6 kmh 30.20 in1022.7 mb - 0.00 in0.0 mm 0.00 in0.0 mm
09:25 AM 69.6°F20.9°C 54.6°F12.6°C 59% 4.6 mph E7.4 kmh E 8.1 mph13.0 kmh 30.20 in1022.7 mb - 0.00 in0.0 mm 0.00 in0.0 mm
09:20 AM 69.1°F20.6°C 54.6°F12.6°C 60% 4.6 mph E7.4 kmh E 4.6 mph7.4 kmh 30.20 in1022.7 mb - 0.00 in0.0 mm 0.00 in0.0 mm
09:15 AM 68.7°F20.4°C 54.2°F12.3°C 60% 8.1 mph SE13.0 kmh SE 8.1 mph13.0 kmh 30.20 in1022.7 mb - 0.00 in0.0 mm 0.00 in0.0 mm
09:10 AM 68.1°F20.1°C 55.1°F12.8°C 63% 4.6 mph SE7.4 kmh SE 4.6 mph7.4 kmh 30.20 in1022.7 mb - 0.00 in0.0 mm 0.00 in0.0 mm
09:00 AM 66.9°F19.4°C 54.3°F12.4°C 64% 5.8 mph NE9.3 kmh NE 5.8 mph9.3 kmh 30.21 in1023.0 mb - 0.00 in0.0 mm 0.00 in0.0 mm
08:55 AM 66.5°F19.2°C 55.2°F12.9°C 67% 6.9 mph N11.1 kmh N 6.9 mph11.1 kmh 30.21 in1023.0 mb - 0.00 in0.0 mm 0.00 in0.0 mm
08:50 AM 65.8°F18.8°C 54.1°F12.3°C 66% 4.6 mph ENE7.4 kmh ENE 8.1 mph13.0 kmh 30.21 in1023.0 mb - 0.00 in0.0 mm 0.00 in0.0 mm
08:45 AM 65.2°F18.4°C 54.3°F12.4°C 68% 5.8 mph NE9.3 kmh NE 5.8 mph9.3 kmh 30.21 in1023.0 mb - 0.00 in0.0 mm 0.00 in0.0 mm
08:40 AM 64.5°F18.1°C 54.1°F12.3°C 69% 4.6 mph NE7.4 kmh NE 4.6 mph7.4 kmh 30.21 in1023.0 mb - 0.00 in0.0 mm 0.00 in0.0 mm
08:35 AM 64.1°F17.8°C 54.1°F12.3°C 70% 5.8 mph ENE9.3 kmh ENE 6.9 mph11.1 kmh 30.21 in1023.0 mb - 0.00 in0.0 mm 0.00 in0.0 mm
08:30 AM 63.7°F17.6°C 52.9°F11.6°C 68% 8.1 mph ENE13.0 kmh ENE 8.1 mph13.0 kmh 30.21 in1023.0 mb - 0.00 in0.0 mm 0.00 in0.0 mm
08:25 AM 63.0°F17.2°C 54.6°F12.6°C 74% 6.9 mph ENE11.1 kmh ENE 6.9 mph11.1 kmh 30.21 in1023.0 mb - 0.00 in0.0 mm 0.00 in0.0 mm
08:20 AM 62.5°F16.9°C 53.4°F11.9°C 72% 5.8 mph ESE9.3 kmh ESE 6.9 mph11.1 kmh 30.21 in1023.0 mb - 0.00 in0.0 mm 0.00 in0.0 mm
08:15 AM 62.0°F16.7°C 52.5°F11.4°C 71% 6.9 mph E11.1 kmh E 6.9 mph11.1 kmh 30.21 in1023.0 mb - 0.00 in0.0 mm 0.00 in0.0 mm
08:10 AM 61.4°F16.3°C 53.4°F11.9°C 75% 6.9 mph NE11.1 kmh NE 8.1 mph13.0 kmh 30.21 in1023.0 mb - 0.00 in0.0 mm 0.00 in0.0 mm
08:00 AM 60.0°F15.6°C 53.1°F11.7°C 78% 4.6 mph E7.4 kmh E 10.4 mph16.7 kmh 30.21 in1023.0 mb - 0.00 in0.0 mm 0.00 in0.0 mm
07:55 AM 59.1°F15.1°C 53.3°F11.8°C 81% 8.1 mph ENE13.0 kmh ENE 8.1 mph13.0 kmh 30.21 in1023.0 mb - 0.00 in0.0 mm 0.01 in0.3 mm
07:50 AM 58.6°F14.8°C 53.1°F11.7°C 82% 4.6 mph NE7.4 kmh NE 5.8 mph9.3 kmh 30.21 in1023.0 mb - 0.00 in0.0 mm 0.01 in0.3 mm
07:45 AM 57.9°F14.4°C 52.8°F11.6°C 83% 5.8 mph NW9.3 kmh NW 5.8 mph9.3 kmh 30.21 in1023.0 mb - 0.00 in0.0 mm 0.01 in0.3 mm
07:40 AM 57.4°F14.1°C 52.6°F11.4°C 84% 6.9 mph NE11.1 kmh NE 9.2 mph14.8 kmh 30.21 in1023.0 mb - 0.00 in0.0 mm 0.01 in0.3 mm
07:35 AM 57.0°F13.9°C 52.6°F11.4°C 85% 6.9 mph NW11.1 kmh NW 8.1 mph13.0 kmh 30.21 in1023.0 mb - 0.00 in0.0 mm 0.01 in0.3 mm
07:30 AM 56.8°F13.8°C 52.6°F11.4°C 86% 5.8 mph NE9.3 kmh NE 5.8 mph9.3 kmh 30.21 in1023.0 mb - 0.00 in0.0 mm 0.01 in0.3 mm
07:25 AM 56.5°F13.6°C 52.0°F11.1°C 85% 6.9 mph E11.1 kmh E 6.9 mph11.1 kmh 30.21 in1023.0 mb - 0.00 in0.0 mm 0.01 in0.3 mm
07:20 AM 56.2°F13.4°C 52.4°F11.3°C 87% 5.8 mph NE9.3 kmh NE 5.8 mph9.3 kmh 30.21 in1023.0 mb - 0.00 in0.0 mm 0.01 in0.3 mm
07:15 AM 55.6°F13.1°C 52.4°F11.3°C 89% 8.1 mph ESE13.0 kmh ESE 8.1 mph13.0 kmh 30.21 in1023.0 mb - 0.00 in0.0 mm 0.01 in0.3 mm
07:10 AM 55.3°F12.9°C 52.7°F11.5°C 91% 4.6 mph NE7.4 kmh NE 4.6 mph7.4 kmh 30.21 in1023.0 mb - 0.00 in0.0 mm 0.01 in0.3 mm
07:00 AM 54.8°F12.7°C 52.2°F11.2°C 91% 5.8 mph ESE9.3 kmh ESE 6.9 mph11.1 kmh 30.20 in1022.7 mb - 0.00 in0.0 mm 0.01 in0.3 mm
06:55 AM 54.6°F12.6°C 52.1°F11.2°C 91% 6.9 mph NE11.1 kmh NE 6.9 mph11.1 kmh 30.20 in1022.7 mb - 0.00 in0.0 mm 0.01 in0.3 mm
06:50 AM 54.6°F12.6°C 52.1°F11.2°C 91% 4.6 mph NE7.4 kmh NE 4.6 mph7.4 kmh 30.20 in1022.7 mb - 0.00 in0.0 mm 0.01 in0.3 mm
06:45 AM 54.7°F12.6°C 52.1°F11.2°C 91% 3.5 mph ENE5.6 kmh ENE 3.5 mph5.6 kmh 30.20 in1022.7 mb - 0.00 in0.0 mm 0.01 in0.3 mm
06:40 AM 54.7°F12.6°C 52.4°F11.3°C 92% 6.9 mph ENE11.1 kmh ENE 6.9 mph11.1 kmh 30.20 in1022.7 mb - 0.00 in0.0 mm 0.01 in0.3 mm
06:35 AM 54.8°F12.7°C 53.1°F11.7°C 94% 4.6 mph ENE7.4 kmh ENE 4.6 mph7.4 kmh 30.20 in1022.7 mb - 0.00 in0.0 mm 0.01 in0.3 mm
06:30 AM 54.9°F12.7°C 53.2°F11.8°C 94% 4.6 mph E7.4 kmh E 8.1 mph13.0 kmh 30.20 in1022.7 mb - 0.00 in0.0 mm 0.01 in0.3 mm
06:25 AM 54.8°F12.7°C 53.7°F12.1°C 96% 5.8 mph SE9.3 kmh SE 5.8 mph9.3 kmh 30.20 in1022.7 mb - 0.00 in0.0 mm 0.01 in0.3 mm
06:20 AM 54.7°F12.6°C 53.9°F12.2°C 97% 5.8 mph ESE9.3 kmh ESE 5.8 mph9.3 kmh 30.20 in1022.7 mb - 0.00 in0.0 mm 0.01 in0.3 mm
06:15 AM 54.5°F12.5°C 53.7°F12.1°C 97% 5.8 mph E9.3 kmh E 6.9 mph11.1 kmh 30.20 in1022.7 mb - 0.00 in0.0 mm 0.01 in0.3 mm
06:10 AM 54.3°F12.4°C 53.8°F12.1°C 98% 4.6 mph E7.4 kmh E 4.6 mph7.4 kmh 30.20 in1022.7 mb - 0.00 in0.0 mm 0.01 in0.3 mm
06:00 AM 53.6°F12.0°C 53.3°F11.8°C 99% 4.6 mph S7.4 kmh S 4.6 mph7.4 kmh 30.18 in1022.0 mb - 0.00 in0.0 mm 0.01 in0.3 mm
05:55 AM 53.1°F11.7°C 53.1°F11.7°C 100% 4.6 mph E7.4 kmh E 4.6 mph7.4 kmh 30.18 in1022.0 mb - 0.00 in0.0 mm 0.01 in0.3 mm
05:50 AM 52.6°F11.4°C 52.6°F11.4°C 100% 5.8 mph SE9.3 kmh SE 5.8 mph9.3 kmh 30.18 in1022.0 mb - 0.00 in0.0 mm 0.01 in0.3 mm
05:45 AM 52.3°F11.3°C 52.3°F11.3°C 100% 4.6 mph E7.4 kmh E 6.9 mph11.1 kmh 30.18 in1022.0 mb - 0.00 in0.0 mm 0.01 in0.3 mm
05:40 AM 52.0°F11.1°C 52.0°F11.1°C 100% 4.6 mph E7.4 kmh E 4.6 mph7.4 kmh 30.18 in1022.0 mb - 0.00 in0.0 mm 0.01 in0.3 mm
05:35 AM 51.9°F11.1°C 51.9°F11.1°C 100% Calm Calm -- 30.18 in1022.0 mb - 0.00 in0.0 mm 0.01 in0.3 mm
05:30 AM 51.8°F11.0°C 51.8°F11.0°C 100% 1.2 mph E1.9 kmh E 1.2 mph1.9 kmh 30.18 in1022.0 mb - 0.00 in0.0 mm 0.01 in0.3 mm
05:25 AM 51.8°F11.0°C 51.8°F11.0°C 100% 3.5 mph SE5.6 kmh SE 3.5 mph5.6 kmh 30.18 in1022.0 mb - 0.00 in0.0 mm 0.01 in0.3 mm
05:20 AM 51.7°F10.9°C 51.7°F10.9°C 100% 3.5 mph SE5.6 kmh SE 5.8 mph9.3 kmh 30.18 in1022.0 mb - 0.00 in0.0 mm 0.01 in0.3 mm
05:15 AM 51.7°F10.9°C 51.7°F10.9°C 100% 5.8 mph ESE9.3 kmh ESE 5.8 mph9.3 kmh 30.18 in1022.0 mb - 0.00 in0.0 mm 0.01 in0.3 mm
05:10 AM 51.6°F10.9°C 51.6°F10.9°C 100% 3.5 mph S5.6 kmh S 2.3 mph3.7 kmh 30.18 in1022.0 mb - 0.00 in0.0 mm 0.01 in0.3 mm
05:00 AM 51.5°F10.8°C 51.5°F10.8°C 100% 3.5 mph SE5.6 kmh SE 3.5 mph5.6 kmh 30.18 in1022.0 mb - 0.00 in0.0 mm 0.01 in0.3 mm
04:55 AM 51.4°F10.8°C 51.4°F10.8°C 100% 5.8 mph ENE9.3 kmh ENE 4.6 mph7.4 kmh 30.18 in1022.0 mb - 0.00 in0.0 mm 0.01 in0.3 mm
04:50 AM 51.4°F10.8°C 51.4°F10.8°C 100% 4.6 mph NE7.4 kmh NE 4.6 mph7.4 kmh 30.18 in1022.0 mb - 0.00 in0.0 mm 0.01 in0.3 mm
04:45 AM 51.2°F10.7°C 51.2°F10.7°C 100% 4.6 mph NNE7.4 kmh NNE 4.6 mph7.4 kmh 30.18 in1022.0 mb - 0.00 in0.0 mm 0.01 in0.3 mm
04:40 AM 51.2°F10.7°C 51.2°F10.7°C 100% 4.6 mph SE7.4 kmh SE 4.6 mph7.4 kmh 30.18 in1022.0 mb - 0.00 in0.0 mm 0.01 in0.3 mm
04:35 AM 51.2°F10.7°C 51.2°F10.7°C 100% 5.8 mph E9.3 kmh E 5.8 mph9.3 kmh 30.18 in1022.0 mb - 0.00 in0.0 mm 0.01 in0.3 mm
04:30 AM 51.1°F10.6°C 51.1°F10.6°C 100% 2.3 mph E3.7 kmh E 2.3 mph3.7 kmh 30.18 in1022.0 mb - 0.00 in0.0 mm 0.01 in0.3 mm
04:25 AM 51.1°F10.6°C 51.1°F10.6°C 100% 5.8 mph E9.3 kmh E 5.8 mph9.3 kmh 30.18 in1022.0 mb - 0.00 in0.0 mm 0.01 in0.3 mm
04:20 AM 51.0°F10.6°C 51.0°F10.6°C 100% 6.9 mph ENE11.1 kmh ENE 6.9 mph11.1 kmh 30.18 in1022.0 mb - 0.00 in0.0 mm 0.01 in0.3 mm
04:15 AM 50.9°F10.5°C 50.9°F10.5°C 100% 8.1 mph ESE13.0 kmh ESE 8.1 mph13.0 kmh 30.18 in1022.0 mb - 0.00 in0.0 mm 0.01 in0.3 mm
04:10 AM 50.9°F10.5°C 50.9°F10.5°C 100% 6.9 mph ESE11.1 kmh ESE 6.9 mph11.1 kmh 30.18 in1022.0 mb - 0.00 in0.0 mm 0.01 in0.3 mm
04:00 AM 50.8°F10.4°C 50.8°F10.4°C 100% 4.6 mph NE7.4 kmh NE 4.6 mph7.4 kmh 30.18 in1022.0 mb - 0.00 in0.0 mm 0.01 in0.3 mm
03:55 AM 50.8°F10.4°C 50.8°F10.4°C 100% 4.6 mph ESE7.4 kmh ESE 4.6 mph7.4 kmh 30.18 in1022.0 mb - 0.00 in0.0 mm 0.01 in0.3 mm
03:50 AM 50.8°F10.4°C 50.8°F10.4°C 100% 4.6 mph E7.4 kmh E 4.6 mph7.4 kmh 30.18 in1022.0 mb - 0.00 in0.0 mm 0.01 in0.3 mm
03:45 AM 50.8°F10.4°C 50.8°F10.4°C 100% 5.8 mph E9.3 kmh E 5.8 mph9.3 kmh 30.18 in1022.0 mb - 0.00 in0.0 mm 0.01 in0.3 mm
03:40 AM 50.8°F10.4°C 50.8°F10.4°C 100% 4.6 mph ESE7.4 kmh ESE 4.6 mph7.4 kmh 30.18 in1022.0 mb - 0.00 in0.0 mm 0.01 in0.3 mm
03:35 AM 50.8°F10.4°C 50.8°F10.4°C 100% 6.9 mph ESE11.1 kmh ESE 8.1 mph13.0 kmh 30.18 in1022.0 mb - 0.00 in0.0 mm 0.01 in0.3 mm
03:30 AM 50.8°F10.4°C 50.8°F10.4°C 100% 4.6 mph E7.4 kmh E 8.1 mph13.0 kmh 30.18 in1022.0 mb - 0.00 in0.0 mm 0.01 in0.3 mm
03:25 AM 50.8°F10.4°C 50.8°F10.4°C 100% 3.5 mph E5.6 kmh E 3.5 mph5.6 kmh 30.18 in1022.0 mb - 0.00 in0.0 mm 0.01 in0.3 mm
03:20 AM 50.8°F10.4°C 50.8°F10.4°C 100% 2.3 mph ENE3.7 kmh ENE 5.8 mph9.3 kmh 30.18 in1022.0 mb - 0.00 in0.0 mm 0.01 in0.3 mm
03:15 AM 50.8°F10.4°C 50.8°F10.4°C 100% 4.6 mph E7.4 kmh E 4.6 mph7.4 kmh 30.18 in1022.0 mb - 0.00 in0.0 mm 0.01 in0.3 mm
03:10 AM 50.8°F10.4°C 50.8°F10.4°C 100% 4.6 mph E7.4 kmh E 4.6 mph7.4 kmh 30.18 in1022.0 mb - 0.00 in0.0 mm 0.01 in0.3 mm
03:00 AM 50.9°F10.5°C 50.9°F10.5°C 100% 3.5 mph SE5.6 kmh SE 3.5 mph5.6 kmh 30.18 in1022.0 mb - 0.00 in0.0 mm 0.01 in0.3 mm
02:55 AM 50.9°F10.5°C 50.9°F10.5°C 100% 5.8 mph SE9.3 kmh SE 5.8 mph9.3 kmh 30.18 in1022.0 mb - 0.00 in0.0 mm 0.01 in0.3 mm
02:50 AM 51.0°F10.6°C 51.0°F10.6°C 100% 3.5 mph E5.6 kmh E 4.6 mph7.4 kmh 30.18 in1022.0 mb - 0.00 in0.0 mm 0.01 in0.3 mm
02:45 AM 51.1°F10.6°C 51.1°F10.6°C 100% 3.5 mph E5.6 kmh E 3.5 mph5.6 kmh 30.18 in1022.0 mb - 0.00 in0.0 mm 0.01 in0.3 mm
02:40 AM 51.1°F10.6°C 51.1°F10.6°C 100% 4.6 mph E7.4 kmh E 4.6 mph7.4 kmh 30.18 in1022.0 mb - 0.00 in0.0 mm 0.01 in0.3 mm
02:35 AM 51.1°F10.6°C 51.1°F10.6°C 100% 5.8 mph SE9.3 kmh SE 5.8 mph9.3 kmh 30.18 in1022.0 mb - 0.00 in0.0 mm 0.01 in0.3 mm
02:30 AM 51.1°F10.6°C 50.9°F10.5°C 99% 4.6 mph ESE7.4 kmh ESE 4.6 mph7.4 kmh 30.18 in1022.0 mb - 0.00 in0.0 mm 0.01 in0.3 mm
02:25 AM 51.1°F10.6°C 51.1°F10.6°C 100% 3.5 mph ESE5.6 kmh ESE 3.5 mph5.6 kmh 30.18 in1022.0 mb - 0.00 in0.0 mm 0.01 in0.3 mm
02:20 AM 51.1°F10.6°C 50.9°F10.5°C 99% 3.5 mph SE5.6 kmh SE 5.8 mph9.3 kmh 30.18 in1022.0 mb - 0.00 in0.0 mm 0.01 in0.3 mm
02:15 AM 51.1°F10.6°C 50.9°F10.5°C 99% 4.6 mph ESE7.4 kmh ESE 4.6 mph7.4 kmh 30.18 in1022.0 mb - 0.00 in0.0 mm 0.01 in0.3 mm
02:10 AM 51.1°F10.6°C 51.1°F10.6°C 100% 4.6 mph E7.4 kmh E 4.6 mph7.4 kmh 30.18 in1022.0 mb - 0.00 in0.0 mm 0.01 in0.3 mm
02:00 AM 51.1°F10.6°C 50.8°F10.4°C 99% 4.6 mph E7.4 kmh E 5.8 mph9.3 kmh 30.19 in1022.4 mb - 0.00 in0.0 mm 0.01 in0.3 mm
01:55 AM 51.1°F10.6°C 50.8°F10.4°C 99% 4.6 mph SE7.4 kmh SE 4.6 mph7.4 kmh 30.19 in1022.4 mb - 0.00 in0.0 mm 0.01 in0.3 mm
01:50 AM 51.1°F10.6°C 50.8°F10.4°C 99% 2.3 mph SE3.7 kmh SE 6.9 mph11.1 kmh 30.19 in1022.4 mb - 0.00 in0.0 mm 0.01 in0.3 mm
01:45 AM 51.2°F10.7°C 50.6°F10.3°C 98% 3.5 mph ESE5.6 kmh ESE 3.5 mph5.6 kmh 30.19 in1022.4 mb - 0.00 in0.0 mm 0.01 in0.3 mm
01:40 AM 51.2°F10.7°C 50.7°F10.4°C 98% 4.6 mph E7.4 kmh E 4.6 mph7.4 kmh 30.19 in1022.4 mb - 0.00 in0.0 mm 0.01 in0.3 mm
01:35 AM 51.3°F10.7°C 50.5°F10.3°C 97% 4.6 mph SSE7.4 kmh SSE 4.6 mph7.4 kmh 30.19 in1022.4 mb - 0.00 in0.0 mm 0.01 in0.3 mm
01:30 AM 51.3°F10.7°C 50.5°F10.3°C 97% 2.3 mph ESE3.7 kmh ESE 4.6 mph7.4 kmh 30.19 in1022.4 mb - 0.00 in0.0 mm 0.01 in0.3 mm
01:25 AM 51.4°F10.8°C 50.6°F10.3°C 97% 2.3 mph E3.7 kmh E 4.6 mph7.4 kmh 30.19 in1022.4 mb - 0.00 in0.0 mm 0.01 in0.3 mm
01:20 AM 51.4°F10.8°C 50.6°F10.3°C 97% 5.8 mph SE9.3 kmh SE 5.8 mph9.3 kmh 30.19 in1022.4 mb - 0.00 in0.0 mm 0.01 in0.3 mm
01:15 AM 51.5°F10.8°C 50.7°F10.4°C 97% 5.8 mph E9.3 kmh E 5.8 mph9.3 kmh 30.19 in1022.4 mb - 0.00 in0.0 mm 0.01 in0.3 mm
01:10 AM 51.5°F10.8°C 50.7°F10.4°C 97% 4.6 mph E7.4 kmh E 4.6 mph7.4 kmh 30.19 in1022.4 mb - 0.00 in0.0 mm 0.01 in0.3 mm
01:00 AM 51.5°F10.8°C 50.7°F10.4°C 97% 5.8 mph ENE9.3 kmh ENE 8.1 mph13.0 kmh 30.20 in1022.7 mb - 0.00 in0.0 mm 0.01 in0.3 mm
12:55 AM 51.5°F10.8°C 50.9°F10.5°C 98% 5.8 mph SE9.3 kmh SE 9.2 mph14.8 kmh 30.20 in1022.7 mb - 0.00 in0.0 mm 0.01 in0.3 mm
12:50 AM 51.5°F10.8°C 50.7°F10.4°C 97% 5.8 mph E9.3 kmh E 9.2 mph14.8 kmh 30.20 in1022.7 mb - 0.00 in0.0 mm 0.01 in0.3 mm
12:45 AM 51.5°F10.8°C 51.0°F10.6°C 98% 4.6 mph NE7.4 kmh NE 4.6 mph7.4 kmh 30.20 in1022.7 mb - 0.00 in0.0 mm 0.01 in0.3 mm
12:40 AM 51.6°F10.9°C 50.7°F10.4°C 97% 5.8 mph ENE9.3 kmh ENE 5.8 mph9.3 kmh 30.20 in1022.7 mb - 0.00 in0.0 mm 0.01 in0.3 mm
12:35 AM 51.6°F10.9°C 50.8°F10.4°C 97% 5.8 mph E9.3 kmh E 5.8 mph9.3 kmh 30.20 in1022.7 mb - 0.00 in0.0 mm 0.01 in0.3 mm
12:30 AM 51.7°F10.9°C 50.6°F10.3°C 96% 4.6 mph ESE7.4 kmh ESE 4.6 mph7.4 kmh 30.20 in1022.7 mb - 0.00 in0.0 mm 0.01 in0.3 mm
12:25 AM 51.8°F11.0°C 50.7°F10.4°C 96% 8.1 mph E13.0 kmh E 8.1 mph13.0 kmh 30.20 in1022.7 mb - 0.00 in0.0 mm 0.01 in0.3 mm
12:20 AM 52.0°F11.1°C 50.9°F10.5°C 96% 4.6 mph SE7.4 kmh SE 4.6 mph7.4 kmh 30.20 in1022.7 mb - 0.00 in0.0 mm 0.01 in0.3 mm
12:15 AM 52.1°F11.2°C 51.0°F10.6°C 96% 6.9 mph E11.1 kmh E 6.9 mph11.1 kmh 30.20 in1022.7 mb - 0.00 in0.0 mm 0.01 in0.3 mm
12:10 AM 52.2°F11.2°C 51.1°F10.6°C 96% 5.8 mph E9.3 kmh E 5.8 mph9.3 kmh 30.20 in1022.7 mb - 0.00 in0.0 mm 0.01 in0.3 mm
12:00 AM 52.4°F11.3°C 51.3°F10.7°C 96% 6.9 mph SE11.1 kmh SE 6.9 mph11.1 kmh 30.22 in1023.4 mb - 0.00 in0.0 mm 0.01 in0.3 mm